sensor_id;sensor_type;location;lat;lon;timestamp;pressure;altitude;pressure_sealevel;temperature;humidity
24788;BME280;12883;52.662;5.196;2023-01-31T00:01:42;102382.03;;;5.32;100.00
24788;BME280;12883;52.662;5.196;2023-01-31T00:04:09;102353.13;;;5.21;100.00
24788;BME280;12883;52.662;5.196;2023-01-31T00:06:40;102374.84;;;5.34;100.00
24788;BME280;12883;52.662;5.196;2023-01-31T00:09:08;102368.50;;;5.37;100.00
24788;BME280;12883;52.662;5.196;2023-01-31T00:11:33;102330.06;;;5.14;100.00
24788;BME280;12883;52.662;5.196;2023-01-31T00:14:00;102351.97;;;5.14;100.00
24788;BME280;12883;52.662;5.196;2023-01-31T00:16:26;102363.72;;;5.31;100.00
24788;BME280;12883;52.662;5.196;2023-01-31T00:18:52;102357.38;;;5.33;100.00
24788;BME280;12883;52.662;5.196;2023-01-31T00:21:23;102358.59;;;5.29;100.00
24788;BME280;12883;52.662;5.196;2023-01-31T00:23:50;102358.69;;;5.28;100.00
24788;BME280;12883;52.662;5.196;2023-01-31T00:26:21;102343.19;;;5.25;100.00
24788;BME280;12883;52.662;5.196;2023-01-31T00:28:49;102358.78;;;5.17;100.00
24788;BME280;12883;52.662;5.196;2023-01-31T00:31:15;102350.38;;;5.23;100.00
24788;BME280;12883;52.662;5.196;2023-01-31T00:33:43;102352.16;;;5.22;100.00
24788;BME280;12883;52.662;5.196;2023-01-31T00:36:11;102347.88;;;5.21;100.00
24788;BME280;12883;52.662;5.196;2023-01-31T00:38:37;102325.94;;;5.11;100.00
24788;BME280;12883;52.662;5.196;2023-01-31T00:41:03;102319.69;;;5.12;100.00
24788;BME280;12883;52.662;5.196;2023-01-31T00:43:30;102290.31;;;5.07;100.00
24788;BME280;12883;52.662;5.196;2023-01-31T00:45:56;102329.13;;;5.35;100.00
24788;BME280;12883;52.662;5.196;2023-01-31T00:48:22;102312.19;;;5.28;100.00
24788;BME280;12883;52.662;5.196;2023-01-31T00:50:47;102297.41;;;5.16;100.00
24788;BME280;12883;52.662;5.196;2023-01-31T00:53:12;102302.88;;;5.24;100.00
24788;BME280;12883;52.662;5.196;2023-01-31T00:55:38;102296.13;;;5.31;100.00
24788;BME280;12883;52.662;5.196;2023-01-31T00:58:04;102288.31;;;5.20;100.00
24788;BME280;12883;52.662;5.196;2023-01-31T01:00:29;102297.25;;;5.29;100.00
24788;BME280;12883;52.662;5.196;2023-01-31T01:02:54;102292.50;;;5.23;100.00
24788;BME280;12883;52.662;5.196;2023-01-31T01:05:20;102288.31;;;5.20;100.00
24788;BME280;12883;52.662;5.196;2023-01-31T01:07:45;102297.41;;;5.16;100.00
24788;BME280;12883;52.662;5.196;2023-01-31T01:10:11;102283.06;;;5.20;100.00
24788;BME280;12883;52.662;5.196;2023-01-31T01:12:36;102296.91;;;5.22;100.00
24788;BME280;12883;52.662;5.196;2023-01-31T01:15:02;102288.03;;;5.23;100.00
24788;BME280;12883;52.662;5.196;2023-01-31T01:17:28;102275.22;;;5.30;100.00
24788;BME280;12883;52.662;5.196;2023-01-31T01:19:53;102278.84;;;5.38;100.00
24788;BME280;12883;52.662;5.196;2023-01-31T01:22:18;102279.97;;;5.36;100.00
24788;BME280;12883;52.662;5.196;2023-01-31T01:24:44;102284.84;;;5.40;100.00
24788;BME280;12883;52.662;5.196;2023-01-31T01:27:10;102269.56;;;5.34;100.00
24788;BME280;12883;52.662;5.196;2023-01-31T01:29:36;102279.88;;;5.47;100.00
24788;BME280;12883;52.662;5.196;2023-01-31T01:32:02;102291.25;;;5.47;100.00
24788;BME280;12883;52.662;5.196;2023-01-31T01:34:28;102291.19;;;5.38;100.00
24788;BME280;12883;52.662;5.196;2023-01-31T01:36:53;102252.69;;;5.16;100.00
24788;BME280;12883;52.662;5.196;2023-01-31T01:39:18;102288.44;;;5.39;100.00
24788;BME280;12883;52.662;5.196;2023-01-31T01:41:45;102290.94;;;5.41;100.00
24788;BME280;12883;52.662;5.196;2023-01-31T01:47:55;102291.31;;;5.36;100.00
24788;BME280;12883;52.662;5.196;2023-01-31T01:50:21;102297.03;;;5.41;100.00
24788;BME280;12883;52.662;5.196;2023-01-31T01:52:51;102253.16;;;5.21;100.00
24788;BME280;12883;52.662;5.196;2023-01-31T01:55:22;102284.13;;;5.38;100.00
24788;BME280;12883;52.662;5.196;2023-01-31T01:57:53;102296.66;;;5.46;100.00
24788;BME280;12883;52.662;5.196;2023-01-31T02:00:24;102280.00;;;5.45;100.00
24788;BME280;12883;52.662;5.196;2023-01-31T02:02:57;102279.75;;;5.48;100.00
24788;BME280;12883;52.662;5.196;2023-01-31T02:05:30;102228.78;;;5.19;100.00
24788;BME280;12883;52.662;5.196;2023-01-31T02:07:58;102271.34;;;5.54;100.00
24788;BME280;12883;52.662;5.196;2023-01-31T02:11:22;102263.06;;;5.59;100.00
24788;BME280;12883;52.662;5.196;2023-01-31T02:13:40;102213.63;;;5.32;100.00
24788;BME280;12883;52.662;5.196;2023-01-31T02:16:06;102262.81;;;5.71;100.00
24788;BME280;12883;52.662;5.196;2023-01-31T02:18:32;102258.97;;;5.75;100.00
24788;BME280;12883;52.662;5.196;2023-01-31T02:21:18;102248.75;;;5.82;100.00
24788;BME280;12883;52.662;5.196;2023-01-31T02:27:19;102230.00;;;5.75;100.00
24788;BME280;12883;52.662;5.196;2023-01-31T02:32:42;102234.81;;;6.00;100.00
24788;BME280;12883;52.662;5.196;2023-01-31T02:37:52;102219.31;;;6.07;100.00
24788;BME280;12883;52.662;5.196;2023-01-31T02:40:42;102210.41;;;5.98;100.00
24788;BME280;12883;52.662;5.196;2023-01-31T02:43:42;102230.41;;;6.10;100.00
24788;BME280;12883;52.662;5.196;2023-01-31T02:46:35;102228.63;;;6.20;100.00
24788;BME280;12883;52.662;5.196;2023-01-31T02:49:33;102233.34;;;6.26;100.00
24788;BME280;12883;52.662;5.196;2023-01-31T02:52:49;102236.56;;;6.39;100.00
24788;BME280;12883;52.662;5.196;2023-01-31T02:55:27;102220.31;;;6.34;100.00
24788;BME280;12883;52.662;5.196;2023-01-31T02:58:16;102233.38;;;6.45;100.00
24788;BME280;12883;52.662;5.196;2023-01-31T03:00:43;102228.34;;;6.42;100.00
24788;BME280;12883;52.662;5.196;2023-01-31T03:03:22;102230.59;;;6.47;100.00
24788;BME280;12883;52.662;5.196;2023-01-31T03:08:33;102213.66;;;6.49;100.00
24788;BME280;12883;52.662;5.196;2023-01-31T03:11:01;102224.50;;;6.65;100.00
24788;BME280;12883;52.662;5.196;2023-01-31T03:19:10;102174.78;;;6.70;100.00
24788;BME280;12883;52.662;5.196;2023-01-31T03:21:48;102200.03;;;6.92;100.00
24788;BME280;12883;52.662;5.196;2023-01-31T03:24:16;102202.53;;;6.93;100.00
24788;BME280;12883;52.662;5.196;2023-01-31T03:26:43;102196.41;;;7.02;100.00
24788;BME280;12883;52.662;5.196;2023-01-31T03:29:10;102172.84;;;6.82;100.00
24788;BME280;12883;52.662;5.196;2023-01-31T03:31:40;102203.22;;;6.95;100.00
24788;BME280;12883;52.662;5.196;2023-01-31T03:34:09;102202.78;;;7.00;100.00
24788;BME280;12883;52.662;5.196;2023-01-31T03:36:58;102183.53;;;6.90;100.00
24788;BME280;12883;52.662;5.196;2023-01-31T03:39:55;102179.78;;;6.92;100.00
24788;BME280;12883;52.662;5.196;2023-01-31T03:42:32;102194.59;;;7.03;100.00
24788;BME280;12883;52.662;5.196;2023-01-31T03:45:07;102195.25;;;7.14;100.00
24788;BME280;12883;52.662;5.196;2023-01-31T03:47:46;102175.03;;;7.05;100.00
24788;BME280;12883;52.662;5.196;2023-01-31T03:50:17;102128.13;;;6.80;100.00
24788;BME280;12883;52.662;5.196;2023-01-31T03:53:12;102181.38;;;7.12;100.00
24788;BME280;12883;52.662;5.196;2023-01-31T03:55:43;102162.78;;;7.04;100.00
24788;BME280;12883;52.662;5.196;2023-01-31T03:58:15;102185.38;;;7.16;100.00
24788;BME280;12883;52.662;5.196;2023-01-31T04:00:42;102139.47;;;7.00;100.00
24788;BME280;12883;52.662;5.196;2023-01-31T04:03:13;102172.88;;;7.18;100.00
24788;BME280;12883;52.662;5.196;2023-01-31T04:05:41;102153.28;;;7.21;100.00
24788;BME280;12883;52.662;5.196;2023-01-31T04:08:07;102148.44;;;7.16;100.00
24788;BME280;12883;52.662;5.196;2023-01-31T04:10:32;102109.78;;;6.88;100.00
24788;BME280;12883;52.662;5.196;2023-01-31T04:12:58;102157.16;;;7.26;100.00
24788;BME280;12883;52.662;5.196;2023-01-31T04:15:23;102163.03;;;7.20;100.00
24788;BME280;12883;52.662;5.196;2023-01-31T04:17:48;102165.22;;;7.25;100.00
24788;BME280;12883;52.662;5.196;2023-01-31T04:20:15;102163.94;;;7.29;100.00
24788;BME280;12883;52.662;5.196;2023-01-31T04:22:40;102145.09;;;7.24;100.00
24788;BME280;12883;52.662;5.196;2023-01-31T04:25:06;102143.66;;;7.29;100.00
24788;BME280;12883;52.662;5.196;2023-01-31T04:27:32;102143.50;;;7.40;100.00
24788;BME280;12883;52.662;5.196;2023-01-31T04:29:57;102141.81;;;7.39;100.00
24788;BME280;12883;52.662;5.196;2023-01-31T04:32:23;102145.44;;;7.38;100.00
24788;BME280;12883;52.662;5.196;2023-01-31T04:34:48;102134.31;;;7.35;100.00
24788;BME280;12883;52.662;5.196;2023-01-31T04:37:13;102142.69;;;7.30;100.00
24788;BME280;12883;52.662;5.196;2023-01-31T04:39:39;102135.25;;;7.43;100.00
24788;BME280;12883;52.662;5.196;2023-01-31T04:42:04;102146.25;;;7.39;100.00
24788;BME280;12883;52.662;5.196;2023-01-31T04:44:29;102134.59;;;7.41;100.00
24788;BME280;12883;52.662;5.196;2023-01-31T04:46:55;102140.53;;;7.43;100.00
24788;BME280;12883;52.662;5.196;2023-01-31T04:49:20;102128.00;;;7.45;100.00
24788;BME280;12883;52.662;5.196;2023-01-31T04:51:45;102102.81;;;7.33;100.00
24788;BME280;12883;52.662;5.196;2023-01-31T04:54:11;102128.41;;;7.50;100.00
24788;BME280;12883;52.662;5.196;2023-01-31T04:56:36;102114.38;;;7.50;100.00
24788;BME280;12883;52.662;5.196;2023-01-31T04:59:01;102129.78;;;7.54;100.00
24788;BME280;12883;52.662;5.196;2023-01-31T05:01:27;102111.13;;;7.56;100.00
24788;BME280;12883;52.662;5.196;2023-01-31T05:03:53;102110.16;;;7.57;100.00
24788;BME280;12883;52.662;5.196;2023-01-31T05:06:18;102117.50;;;7.63;100.00
24788;BME280;12883;52.662;5.196;2023-01-31T05:08:44;102106.94;;;7.63;100.00
24788;BME280;12883;52.662;5.196;2023-01-31T05:11:09;102101.44;;;7.56;100.00
24788;BME280;12883;52.662;5.196;2023-01-31T05:13:35;102111.22;;;7.64;100.00
24788;BME280;12883;52.662;5.196;2023-01-31T05:16:08;102094.72;;;7.62;100.00
24788;BME280;12883;52.662;5.196;2023-01-31T05:18:35;102094.97;;;7.68;100.00
24788;BME280;12883;52.662;5.196;2023-01-31T05:21:01;102085.00;;;7.62;100.00
24788;BME280;12883;52.662;5.196;2023-01-31T05:23:27;102078.81;;;7.71;100.00
24788;BME280;12883;52.662;5.196;2023-01-31T05:25:52;102075.22;;;7.63;100.00
24788;BME280;12883;52.662;5.196;2023-01-31T05:28:18;102089.91;;;7.75;100.00
24788;BME280;12883;52.662;5.196;2023-01-31T05:30:43;102086.19;;;7.68;100.00
24788;BME280;12883;52.662;5.196;2023-01-31T05:33:09;102107.19;;;7.69;100.00
24788;BME280;12883;52.662;5.196;2023-01-31T05:35:34;102081.84;;;7.76;100.00
24788;BME280;12883;52.662;5.196;2023-01-31T05:38:00;102076.53;;;7.76;100.00
24788;BME280;12883;52.662;5.196;2023-01-31T05:40:25;102088.25;;;7.74;100.00
24788;BME280;12883;52.662;5.196;2023-01-31T05:42:55;102082.66;;;7.77;100.00
24788;BME280;12883;52.662;5.196;2023-01-31T05:45:20;102074.88;;;7.75;100.00
24788;BME280;12883;52.662;5.196;2023-01-31T05:47:47;102087.13;;;7.76;100.00
24788;BME280;12883;52.662;5.196;2023-01-31T05:50:12;102089.84;;;7.84;100.00
24788;BME280;12883;52.662;5.196;2023-01-31T05:52:38;102077.47;;;7.85;100.00
24788;BME280;12883;52.662;5.196;2023-01-31T05:55:04;102082.13;;;7.91;100.00
24788;BME280;12883;52.662;5.196;2023-01-31T05:57:29;102077.00;;;7.89;100.00
24788;BME280;12883;52.662;5.196;2023-01-31T05:59:55;102067.25;;;7.90;100.00
24788;BME280;12883;52.662;5.196;2023-01-31T06:02:20;102060.16;;;7.90;100.00
24788;BME280;12883;52.662;5.196;2023-01-31T06:04:45;102057.91;;;7.95;100.00
24788;BME280;12883;52.662;5.196;2023-01-31T06:07:11;102047.34;;;7.95;100.00
24788;BME280;12883;52.662;5.196;2023-01-31T06:09:36;102049.66;;;7.98;100.00
24788;BME280;12883;52.662;5.196;2023-01-31T06:12:03;102051.47;;;7.98;100.00
24788;BME280;12883;52.662;5.196;2023-01-31T06:14:29;102045.22;;;7.99;100.00
24788;BME280;12883;52.662;5.196;2023-01-31T06:16:54;102039.31;;;8.05;100.00
24788;BME280;12883;52.662;5.196;2023-01-31T06:19:20;102055.69;;;8.08;100.00
24788;BME280;12883;52.662;5.196;2023-01-31T06:21:49;102046.34;;;8.14;100.00
24788;BME280;12883;52.662;5.196;2023-01-31T06:24:15;102042.03;;;8.13;100.00
24788;BME280;12883;52.662;5.196;2023-01-31T06:26:40;102026.78;;;8.07;100.00
24788;BME280;12883;52.662;5.196;2023-01-31T06:29:07;102008.75;;;8.02;100.00
24788;BME280;12883;52.662;5.196;2023-01-31T06:31:33;102021.78;;;8.21;100.00
24788;BME280;12883;52.662;5.196;2023-01-31T06:33:58;102031.47;;;8.30;100.00
24788;BME280;12883;52.662;5.196;2023-01-31T06:36:24;101987.59;;;8.02;100.00
24788;BME280;12883;52.662;5.196;2023-01-31T06:38:50;102018.91;;;8.15;100.00
24788;BME280;12883;52.662;5.196;2023-01-31T06:41:17;102040.59;;;8.18;100.00
24788;BME280;12883;52.662;5.196;2023-01-31T06:43:42;102011.50;;;8.18;100.00
24788;BME280;12883;52.662;5.196;2023-01-31T06:46:08;101985.63;;;8.04;100.00
24788;BME280;12883;52.662;5.196;2023-01-31T06:48:33;102019.59;;;8.17;100.00
24788;BME280;12883;52.662;5.196;2023-01-31T06:50:58;102005.25;;;8.19;100.00
24788;BME280;12883;52.662;5.196;2023-01-31T06:53:24;102005.31;;;8.10;100.00
24788;BME280;12883;52.662;5.196;2023-01-31T06:55:49;101993.94;;;8.09;100.00
24788;BME280;12883;52.662;5.196;2023-01-31T06:58:14;101995.22;;;8.05;100.00
24788;BME280;12883;52.662;5.196;2023-01-31T07:00:40;102009.56;;;8.03;100.00
24788;BME280;12883;52.662;5.196;2023-01-31T07:03:05;102007.25;;;8.00;100.00
24788;BME280;12883;52.662;5.196;2023-01-31T07:05:30;101996.81;;;7.98;100.00
24788;BME280;12883;52.662;5.196;2023-01-31T07:07:56;101981.28;;;7.95;100.00
24788;BME280;12883;52.662;5.196;2023-01-31T07:10:22;101988.97;;;7.89;100.00
24788;BME280;12883;52.662;5.196;2023-01-31T07:12:47;101968.66;;;7.89;100.00
24788;BME280;12883;52.662;5.196;2023-01-31T07:15:13;101947.16;;;7.84;100.00
24788;BME280;12883;52.662;5.196;2023-01-31T07:17:38;101942.28;;;7.72;100.00
24788;BME280;12883;52.662;5.196;2023-01-31T07:20:04;101951.06;;;7.80;100.00
24788;BME280;12883;52.662;5.196;2023-01-31T07:22:29;101978.28;;;7.73;100.00
24788;BME280;12883;52.662;5.196;2023-01-31T07:24:55;101939.94;;;7.51;100.00
24788;BME280;12883;52.662;5.196;2023-01-31T07:27:20;101984.69;;;7.70;100.00
24788;BME280;12883;52.662;5.196;2023-01-31T07:29:45;101969.28;;;7.66;100.00
24788;BME280;12883;52.662;5.196;2023-01-31T07:32:11;101941.91;;;7.49;100.00
24788;BME280;12883;52.662;5.196;2023-01-31T07:34:36;101973.72;;;7.65;100.00
24788;BME280;12883;52.662;5.196;2023-01-31T07:37:02;101979.63;;;7.59;100.00
24788;BME280;12883;52.662;5.196;2023-01-31T07:39:28;101974.50;;;7.58;100.00
24788;BME280;12883;52.662;5.196;2023-01-31T07:41:53;101970.72;;;7.60;100.00
24788;BME280;12883;52.662;5.196;2023-01-31T07:44:19;101964.47;;;7.61;100.00
24788;BME280;12883;52.662;5.196;2023-01-31T07:46:44;101968.69;;;7.54;100.00
24788;BME280;12883;52.662;5.196;2023-01-31T07:49:10;101948.53;;;7.53;100.00
24788;BME280;12883;52.662;5.196;2023-01-31T07:51:36;101947.72;;;7.53;100.00
24788;BME280;12883;52.662;5.196;2023-01-31T07:54:03;101947.56;;;7.54;100.00
24788;BME280;12883;52.662;5.196;2023-01-31T07:56:29;101943.41;;;7.52;100.00
24788;BME280;12883;52.662;5.196;2023-01-31T07:58:54;101959.41;;;7.50;100.00
24788;BME280;12883;52.662;5.196;2023-01-31T08:01:22;101963.56;;;7.53;100.00
24788;BME280;12883;52.662;5.196;2023-01-31T08:04:08;101961.72;;;7.53;100.00
24788;BME280;12883;52.662;5.196;2023-01-31T08:06:35;101957.44;;;7.52;100.00
24788;BME280;12883;52.662;5.196;2023-01-31T08:09:01;101910.44;;;7.21;100.00
24788;BME280;12883;52.662;5.196;2023-01-31T08:11:27;101953.97;;;7.69;100.00
24788;BME280;12883;52.662;5.196;2023-01-31T08:13:52;101965.22;;;7.71;100.00
24788;BME280;12883;52.662;5.196;2023-01-31T08:16:18;101957.88;;;7.65;100.00
24788;BME280;12883;52.662;5.196;2023-01-31T08:18:48;101970.22;;;7.74;100.00
24788;BME280;12883;52.662;5.196;2023-01-31T08:21:14;101948.38;;;7.72;100.00
24788;BME280;12883;52.662;5.196;2023-01-31T08:23:40;101906.38;;;7.61;100.00
24788;BME280;12883;52.662;5.196;2023-01-31T08:26:08;101950.78;;;7.83;100.00
24788;BME280;12883;52.662;5.196;2023-01-31T08:28:35;101945.50;;;7.83;100.00
24788;BME280;12883;52.662;5.196;2023-01-31T08:31:01;101944.19;;;7.87;100.00
24788;BME280;12883;52.662;5.196;2023-01-31T08:33:27;101931.88;;;7.96;100.00
24788;BME280;12883;52.662;5.196;2023-01-31T08:35:52;101937.81;;;7.98;100.00
24788;BME280;12883;52.662;5.196;2023-01-31T08:38:18;101929.47;;;8.02;100.00
24788;BME280;12883;52.662;5.196;2023-01-31T08:40:43;101925.81;;;8.03;100.00
24788;BME280;12883;52.662;5.196;2023-01-31T08:43:08;101915.72;;;7.99;100.00
24788;BME280;12883;52.662;5.196;2023-01-31T08:45:34;101916.69;;;7.98;100.00
24788;BME280;12883;52.662;5.196;2023-01-31T08:48:01;101935.31;;;8.14;100.00
24788;BME280;12883;52.662;5.196;2023-01-31T08:50:27;101922.91;;;8.14;100.00
24788;BME280;12883;52.662;5.196;2023-01-31T08:52:54;101913.97;;;8.15;100.00
24788;BME280;12883;52.662;5.196;2023-01-31T08:55:20;101906.25;;;8.14;100.00
24788;BME280;12883;52.662;5.196;2023-01-31T08:57:46;101907.03;;;8.14;100.00
24788;BME280;12883;52.662;5.196;2023-01-31T09:00:13;101903.34;;;8.25;100.00
24788;BME280;12883;52.662;5.196;2023-01-31T09:02:38;101905.84;;;8.26;100.00
24788;BME280;12883;52.662;5.196;2023-01-31T09:05:04;101902.41;;;8.34;100.00
24788;BME280;12883;52.662;5.196;2023-01-31T09:07:32;101895.28;;;8.34;100.00
24788;BME280;12883;52.662;5.196;2023-01-31T09:09:57;101838.28;;;8.06;100.00
24788;BME280;12883;52.662;5.196;2023-01-31T09:12:23;101890.66;;;8.36;100.00
24788;BME280;12883;52.662;5.196;2023-01-31T09:14:50;101886.09;;;8.46;100.00
24788;BME280;12883;52.662;5.196;2023-01-31T09:17:16;101847.03;;;8.32;100.00
24788;BME280;12883;52.662;5.196;2023-01-31T09:19:41;101879.53;;;8.58;100.00
24788;BME280;12883;52.662;5.196;2023-01-31T09:22:07;101857.41;;;8.67;100.00
24788;BME280;12883;52.662;5.196;2023-01-31T09:24:32;101867.66;;;8.70;100.00
24788;BME280;12883;52.662;5.196;2023-01-31T09:26:57;101877.09;;;8.73;100.00
24788;BME280;12883;52.662;5.196;2023-01-31T09:29:23;101893.16;;;8.79;100.00
24788;BME280;12883;52.662;5.196;2023-01-31T09:31:51;101869.84;;;8.83;100.00
24788;BME280;12883;52.662;5.196;2023-01-31T09:34:17;101858.06;;;8.69;100.00
24788;BME280;12883;52.662;5.196;2023-01-31T09:36:43;101861.22;;;8.81;100.00
24788;BME280;12883;52.662;5.196;2023-01-31T09:39:10;101853.16;;;8.90;100.00
24788;BME280;12883;52.662;5.196;2023-01-31T09:41:46;101872.00;;;8.87;100.00
24788;BME280;12883;52.662;5.196;2023-01-31T09:44:26;101880.63;;;8.97;100.00
24788;BME280;12883;52.662;5.196;2023-01-31T09:49:45;101856.28;;;8.86;100.00
24788;BME280;12883;52.662;5.196;2023-01-31T09:52:13;101833.59;;;8.75;100.00
24788;BME280;12883;52.662;5.196;2023-01-31T09:54:39;101869.53;;;8.94;100.00
24788;BME280;12883;52.662;5.196;2023-01-31T10:02:18;101863.09;;;9.12;100.00
24788;BME280;12883;52.662;5.196;2023-01-31T10:07:56;101826.06;;;9.20;100.00
24788;BME280;12883;52.662;5.196;2023-01-31T10:10:35;101849.22;;;9.26;100.00
24788;BME280;12883;52.662;5.196;2023-01-31T10:13:08;101847.25;;;9.28;100.00
24788;BME280;12883;52.662;5.196;2023-01-31T10:15:41;101839.13;;;9.30;100.00
24788;BME280;12883;52.662;5.196;2023-01-31T10:18:12;101863.13;;;9.44;100.00
24788;BME280;12883;52.662;5.196;2023-01-31T10:20:49;101877.38;;;9.51;100.00
24788;BME280;12883;52.662;5.196;2023-01-31T10:23:30;101881.50;;;9.53;100.00
24788;BME280;12883;52.662;5.196;2023-01-31T10:26:00;101879.34;;;9.57;100.00
24788;BME280;12883;52.662;5.196;2023-01-31T10:28:32;101867.91;;;9.48;100.00
24788;BME280;12883;52.662;5.196;2023-01-31T10:31:15;101859.00;;;9.34;100.00
24788;BME280;12883;52.662;5.196;2023-01-31T10:39:23;101906.19;;;9.62;100.00
24788;BME280;12883;52.662;5.196;2023-01-31T10:44:26;101920.25;;;9.62;100.00
24788;BME280;12883;52.662;5.196;2023-01-31T10:46:59;101898.91;;;9.56;100.00
24788;BME280;12883;52.662;5.196;2023-01-31T10:49:25;101911.31;;;9.71;100.00
24788;BME280;12883;52.662;5.196;2023-01-31T10:54:44;101890.28;;;9.70;100.00
24788;BME280;12883;52.662;5.196;2023-01-31T10:57:14;101902.19;;;9.74;100.00
24788;BME280;12883;52.662;5.196;2023-01-31T10:59:44;101901.03;;;9.76;100.00
24788;BME280;12883;52.662;5.196;2023-01-31T11:02:22;101877.69;;;9.72;100.00
24788;BME280;12883;52.662;5.196;2023-01-31T11:04:50;101885.78;;;9.86;100.00
24788;BME280;12883;52.662;5.196;2023-01-31T11:07:16;101890.91;;;9.80;100.00
24788;BME280;12883;52.662;5.196;2023-01-31T11:20:45;101852.44;;;10.08;100.00
24788;BME280;12883;52.662;5.196;2023-01-31T11:23:16;101845.16;;;10.10;100.00
24788;BME280;12883;52.662;5.196;2023-01-31T11:25:48;101862.56;;;10.04;100.00
24788;BME280;12883;52.662;5.196;2023-01-31T11:28:19;101852.81;;;10.05;100.00
24788;BME280;12883;52.662;5.196;2023-01-31T11:30:47;101867.34;;;10.17;100.00
24788;BME280;12883;52.662;5.196;2023-01-31T11:33:40;101860.25;;;10.09;100.00
24788;BME280;12883;52.662;5.196;2023-01-31T11:36:16;101847.50;;;10.05;100.00
24788;BME280;12883;52.662;5.196;2023-01-31T11:38:47;101850.78;;;10.07;100.00
24788;BME280;12883;52.662;5.196;2023-01-31T11:41:28;101831.56;;;10.13;100.00
24788;BME280;12883;52.662;5.196;2023-01-31T11:44:17;101840.16;;;10.15;100.00
24788;BME280;12883;52.662;5.196;2023-01-31T11:47:10;101817.81;;;10.09;100.00
24788;BME280;12883;52.662;5.196;2023-01-31T11:49:40;101832.03;;;10.16;100.00
24788;BME280;12883;52.662;5.196;2023-01-31T11:52:16;101821.94;;;10.12;100.00
24788;BME280;12883;52.662;5.196;2023-01-31T11:54:50;101797.13;;;9.97;100.00
24788;BME280;12883;52.662;5.196;2023-01-31T11:57:37;101826.84;;;10.31;100.00
24788;BME280;12883;52.662;5.196;2023-01-31T12:02:44;101792.69;;;10.28;100.00
24788;BME280;12883;52.662;5.196;2023-01-31T12:05:13;101810.91;;;10.39;100.00
24788;BME280;12883;52.662;5.196;2023-01-31T12:07:51;101799.63;;;10.37;100.00
24788;BME280;12883;52.662;5.196;2023-01-31T12:10:40;101794.44;;;10.43;100.00
24788;BME280;12883;52.662;5.196;2023-01-31T12:13:17;101806.53;;;10.46;100.00
24788;BME280;12883;52.662;5.196;2023-01-31T12:15:57;101788.31;;;10.43;100.00
24788;BME280;12883;52.662;5.196;2023-01-31T12:26:36;101815.03;;;10.64;100.00
24788;BME280;12883;52.662;5.196;2023-01-31T12:29:23;101811.09;;;10.60;100.00
24788;BME280;12883;52.662;5.196;2023-01-31T12:32:08;101771.31;;;10.60;100.00
24788;BME280;12883;52.662;5.196;2023-01-31T12:37:52;101752.09;;;10.58;100.00
24788;BME280;12883;52.662;5.196;2023-01-31T12:40:25;101752.50;;;10.69;100.00
24788;BME280;12883;52.662;5.196;2023-01-31T12:42:56;101805.69;;;10.76;100.00
24788;BME280;12883;52.662;5.196;2023-01-31T12:46:03;101762.34;;;10.83;100.00
24788;BME280;12883;52.662;5.196;2023-01-31T12:48:46;101774.44;;;10.86;100.00
24788;BME280;12883;52.662;5.196;2023-01-31T12:51:21;101762.41;;;10.75;100.00
24788;BME280;12883;52.662;5.196;2023-01-31T12:56:49;101769.47;;;10.83;100.00
24788;BME280;12883;52.662;5.196;2023-01-31T12:59:41;101781.94;;;10.82;100.00
24788;BME280;12883;52.662;5.196;2023-01-31T13:02:18;101788.91;;;10.83;100.00
24788;BME280;12883;52.662;5.196;2023-01-31T13:04:51;101773.25;;;10.66;100.00
24788;BME280;12883;52.662;5.196;2023-01-31T13:07:46;101782.09;;;10.81;100.00
24788;BME280;12883;52.662;5.196;2023-01-31T13:12:59;101790.47;;;10.70;100.00
24788;BME280;12883;52.662;5.196;2023-01-31T13:15:37;101790.53;;;10.62;100.00
24788;BME280;12883;52.662;5.196;2023-01-31T13:18:05;101791.47;;;10.69;100.00
24788;BME280;12883;52.662;5.196;2023-01-31T13:20:36;101806.28;;;10.63;100.00
24788;BME280;12883;52.662;5.196;2023-01-31T13:23:12;101818.44;;;10.58;100.00
24788;BME280;12883;52.662;5.196;2023-01-31T13:25:47;101785.91;;;10.56;100.00
24788;BME280;12883;52.662;5.196;2023-01-31T13:28:18;101804.63;;;10.62;100.00
24788;BME280;12883;52.662;5.196;2023-01-31T13:33:39;101777.34;;;10.46;100.00
24788;BME280;12883;52.662;5.196;2023-01-31T13:38:42;101809.09;;;10.62;100.00
24788;BME280;12883;52.662;5.196;2023-01-31T13:41:25;101793.53;;;10.59;100.00
24788;BME280;12883;52.662;5.196;2023-01-31T13:43:50;101815.72;;;10.66;100.00
24788;BME280;12883;52.662;5.196;2023-01-31T13:46:20;101836.13;;;10.65;100.00
24788;BME280;12883;52.662;5.196;2023-01-31T13:48:55;101831.66;;;10.66;100.00
24788;BME280;12883;52.662;5.196;2023-01-31T13:51:33;101830.44;;;10.76;100.00
24788;BME280;12883;52.662;5.196;2023-01-31T13:56:36;101841.75;;;10.70;100.00
24788;BME280;12883;52.662;5.196;2023-01-31T13:59:06;101845.69;;;10.74;100.00
24788;BME280;12883;52.662;5.196;2023-01-31T14:01:35;101844.88;;;10.74;100.00
24788;BME280;12883;52.662;5.196;2023-01-31T14:09:34;101842.47;;;10.56;100.00
24788;BME280;12883;52.662;5.196;2023-01-31T14:17:07;101848.09;;;10.61;100.00
24788;BME280;12883;52.662;5.196;2023-01-31T14:27:19;101858.25;;;10.50;100.00
24788;BME280;12883;52.662;5.196;2023-01-31T14:29:46;101875.84;;;10.43;100.00
24788;BME280;12883;52.662;5.196;2023-01-31T14:32:27;101866.41;;;10.48;100.00
24788;BME280;12883;52.662;5.196;2023-01-31T14:34:54;101883.13;;;10.49;100.00
24788;BME280;12883;52.662;5.196;2023-01-31T14:37:30;101877.66;;;10.50;100.00
24788;BME280;12883;52.662;5.196;2023-01-31T14:40:25;101881.31;;;10.49;100.00
24788;BME280;12883;52.662;5.196;2023-01-31T14:45:47;101883.47;;;10.54;100.00